createdAt,value
2023-05-11T00:01:54.549Z,1.38
2023-05-11T00:04:42.095Z,1.45
2023-05-11T00:07:29.337Z,13.10
2023-05-11T00:10:17.746Z,6.38
2023-05-11T00:13:11.012Z,2.53
2023-05-11T00:15:58.428Z,2.30
2023-05-11T00:18:49.596Z,1.75
2023-05-11T00:21:39.099Z,3.90
2023-05-11T00:24:27.430Z,2.38
2023-05-11T00:27:14.797Z,1.98
2023-05-11T00:30:01.992Z,2.22
2023-05-11T00:32:57.726Z,3.10
2023-05-11T00:35:44.938Z,2.47
2023-05-11T00:38:32.315Z,0.90
2023-05-11T00:41:22.116Z,4.15
2023-05-11T00:44:09.399Z,4.20
2023-05-11T00:50:12.496Z,1.25
2023-05-11T00:53:02.373Z,2.35
2023-05-11T00:55:50.795Z,4.07
2023-05-11T00:58:42.281Z,2.53
2023-05-11T01:01:31.017Z,3.22
2023-05-11T01:04:19.302Z,1.75
2023-05-11T01:07:09.593Z,1.30
2023-05-11T01:10:32.279Z,4.97
2023-05-11T01:13:58.524Z,1.30
2023-05-11T01:17:05.975Z,1.98
2023-05-11T01:20:01.755Z,2.65
2023-05-11T01:23:08.315Z,5.55
2023-05-11T01:26:33.351Z,3.13
2023-05-11T01:29:50.409Z,5.88
2023-05-11T01:32:41.764Z,2.38
2023-05-11T01:35:37.874Z,2.05
2023-05-11T01:38:34.606Z,1.33
2023-05-11T01:41:23.729Z,2.65
2023-05-11T01:44:14.285Z,2.28
2023-05-11T01:47:06.415Z,1.48
2023-05-11T01:49:54.662Z,1.38
2023-05-11T01:53:13.782Z,2.00
2023-05-11T01:56:13.205Z,2.35
2023-05-11T01:59:19.354Z,1.25
2023-05-11T02:02:08.506Z,2.30
2023-05-11T02:05:00.889Z,3.90
2023-05-11T02:07:50.605Z,1.77
2023-05-11T02:10:40.074Z,1.88
2023-05-11T02:13:28.954Z,2.08
2023-05-11T02:16:29.773Z,1.67
2023-05-11T02:28:13.255Z,1.58
2023-05-11T02:31:14.439Z,3.63
2023-05-11T02:34:21.127Z,2.70
2023-05-11T02:37:48.489Z,2.03
2023-05-11T02:40:46.379Z,3.53
2023-05-11T02:44:15.498Z,2.60
2023-05-11T02:47:04.771Z,2.05
2023-05-11T02:49:54.512Z,2.00
2023-05-11T02:52:49.052Z,2.95
2023-05-11T02:55:36.349Z,2.42
2023-05-11T02:58:24.139Z,2.25
2023-05-11T03:01:13.317Z,5.28
2023-05-11T03:04:03.621Z,6.15
2023-05-11T03:06:50.841Z,3.10
2023-05-11T03:09:38.658Z,2.80
2023-05-11T03:12:27.530Z,4.10
2023-05-11T03:15:16.150Z,1.90
2023-05-11T03:18:05.437Z,2.10
2023-05-11T03:20:54.221Z,6.40
2023-05-11T03:23:41.880Z,3.05
2023-05-11T03:26:32.181Z,3.60
2023-05-11T03:29:22.950Z,2.20
2023-05-11T03:32:10.192Z,3.03
2023-05-11T03:34:57.602Z,2.97
2023-05-11T03:37:46.313Z,3.50
2023-05-11T03:40:37.159Z,2.40
2023-05-11T03:43:26.650Z,5.68
2023-05-11T03:46:16.981Z,4.78
2023-05-11T03:49:05.821Z,5.60
2023-05-11T03:51:53.498Z,4.80
2023-05-11T03:54:46.385Z,3.65
2023-05-11T03:57:34.442Z,2.47
2023-05-11T04:00:22.593Z,3.60
2023-05-11T04:03:18.297Z,4.13
2023-05-11T04:06:08.093Z,6.72
2023-05-11T04:08:57.866Z,2.83
2023-05-11T04:11:45.083Z,3.05
2023-05-11T04:14:32.277Z,3.00
2023-05-11T04:17:19.408Z,5.80
2023-05-11T04:20:08.345Z,4.00
2023-05-11T04:22:55.654Z,4.35
2023-05-11T04:25:42.876Z,4.90
2023-05-11T04:28:32.454Z,2.92
2023-05-11T04:31:19.728Z,4.55
2023-05-11T04:34:08.451Z,2.63
2023-05-11T04:36:55.806Z,3.72
2023-05-11T04:39:42.982Z,3.15
2023-05-11T04:42:33.009Z,2.97
2023-05-11T04:45:20.261Z,4.13
2023-05-11T04:48:09.979Z,3.47
2023-05-11T04:50:57.673Z,7.20
2023-05-11T04:53:44.913Z,7.32
2023-05-11T04:56:34.140Z,6.15
2023-05-11T04:59:21.390Z,5.97
2023-05-11T05:02:08.904Z,8.88
2023-05-11T05:04:57.604Z,4.40
2023-05-11T05:07:46.120Z,9.63
2023-05-11T05:10:33.720Z,9.48
2023-05-11T05:13:20.907Z,8.82
2023-05-11T05:16:10.555Z,5.38
2023-05-11T05:18:57.844Z,4.22
2023-05-11T05:21:45.137Z,7.60
2023-05-11T05:24:35.262Z,7.68
2023-05-11T05:27:22.553Z,5.63
2023-05-11T05:30:12.367Z,3.88
2023-05-11T05:32:59.623Z,5.35
2023-05-11T05:35:47.223Z,4.15
2023-05-11T05:38:44.344Z,3.92
2023-05-11T05:41:45.928Z,6.93
2023-05-11T05:44:50.279Z,3.05
2023-05-11T05:47:55.612Z,3.17
2023-05-11T05:54:16.172Z,4.07
2023-05-11T05:59:05.869Z,6.20
2023-05-11T06:02:09.783Z,2.55
2023-05-11T06:05:24.449Z,3.00
2023-05-11T06:08:40.608Z,4.35
2023-05-11T06:23:10.163Z,4.35
2023-05-11T06:36:35.260Z,6.18
2023-05-11T06:52:10.147Z,3.10
2023-05-11T06:55:50.898Z,5.40
2023-05-11T06:59:33.601Z,3.47
2023-05-11T07:05:53.882Z,2.72
2023-05-11T07:20:18.974Z,2.83
2023-05-11T07:23:13.165Z,5.68
2023-05-11T07:26:22.303Z,1.42
2023-05-11T07:29:09.731Z,1.52
2023-05-11T07:32:11.008Z,1.88
2023-05-11T07:34:58.544Z,3.72
2023-05-11T07:37:45.951Z,4.35
2023-05-11T07:40:33.333Z,4.20
2023-05-11T07:43:20.590Z,4.47
2023-05-11T07:46:07.978Z,2.92
2023-05-11T07:49:07.252Z,4.00
2023-05-11T07:52:03.004Z,2.33
2023-05-11T07:54:51.203Z,5.00
2023-05-11T07:57:38.667Z,4.28
2023-05-11T08:00:26.169Z,3.75
2023-05-11T08:03:17.836Z,4.45
2023-05-11T08:06:06.013Z,2.17
2023-05-11T08:08:53.755Z,3.15
2023-05-11T08:11:42.394Z,2.30
2023-05-11T08:14:29.716Z,2.35
2023-05-11T08:17:17.116Z,5.93
2023-05-11T08:20:06.920Z,2.28
2023-05-11T08:22:54.576Z,4.93
2023-05-11T08:25:41.989Z,5.95
2023-05-11T08:28:29.447Z,1.90
2023-05-11T08:31:19.771Z,3.70
2023-05-11T08:34:18.614Z,2.13
2023-05-11T08:37:06.877Z,2.60
2023-05-11T08:39:54.808Z,3.30
2023-05-11T08:42:47.226Z,2.60
2023-05-11T08:45:38.653Z,2.35
2023-05-11T08:48:27.858Z,2.47
2023-05-11T08:51:15.745Z,3.72
2023-05-11T08:54:03.862Z,2.67
2023-05-11T08:56:52.094Z,1.92
2023-05-11T08:59:40.895Z,1.98
2023-05-11T09:02:29.165Z,3.05
2023-05-11T09:05:27.612Z,4.95
2023-05-11T09:08:18.298Z,3.22
2023-05-11T09:11:06.684Z,4.32
2023-05-11T09:13:54.279Z,2.72
2023-05-11T09:16:41.974Z,4.10
2023-05-11T09:19:29.619Z,1.20
2023-05-11T09:22:17.065Z,2.17
2023-05-11T09:25:04.974Z,2.97
2023-05-11T09:27:52.724Z,3.45
2023-05-11T09:30:40.190Z,2.72
2023-05-11T09:33:27.902Z,1.70
2023-05-11T09:36:24.797Z,2.42
2023-05-11T09:39:16.155Z,1.27
2023-05-11T09:42:18.103Z,1.30
2023-05-11T09:45:06.727Z,2.75
2023-05-11T09:47:54.002Z,3.22
2023-05-11T09:50:41.399Z,1.52
2023-05-11T09:53:39.171Z,4.65
2023-05-11T09:56:58.533Z,2.63
2023-05-11T09:59:50.843Z,3.55
2023-05-11T10:02:46.498Z,4.10
2023-05-11T10:05:38.375Z,3.72
2023-05-11T10:08:34.545Z,4.82
2023-05-11T10:11:25.496Z,1.75
2023-05-11T10:14:19.252Z,4.15
2023-05-11T10:20:20.995Z,1.20
2023-05-11T10:23:19.296Z,1.48
2023-05-11T10:29:27.831Z,1.95
2023-05-11T10:32:51.608Z,2.40
2023-05-11T10:36:47.264Z,1.83
2023-05-11T10:39:50.806Z,1.33
2023-05-11T10:42:47.316Z,3.13
2023-05-11T10:45:40.502Z,1.42
2023-05-11T10:49:00.258Z,4.13
2023-05-11T10:52:18.950Z,3.60
2023-05-11T10:55:24.294Z,1.27
2023-05-11T10:58:19.589Z,2.67
2023-05-11T11:01:40.920Z,1.33
2023-05-11T11:05:10.966Z,1.98
2023-05-11T11:12:39.102Z,1.60
2023-05-11T11:16:25.646Z,2.58
2023-05-11T11:19:31.408Z,3.22
2023-05-11T11:23:00.549Z,2.80
2023-05-11T11:30:59.211Z,0.93
2023-05-11T11:34:23.714Z,1.35
2023-05-11T11:37:52.549Z,2.65
2023-05-11T11:41:29.651Z,2.63
2023-05-11T11:44:25.803Z,0.70
2023-05-11T11:48:12.408Z,2.30
2023-05-11T11:52:22.895Z,1.50
2023-05-11T12:23:39.473Z,1.90
2023-05-11T12:26:30.253Z,1.27
2023-05-11T12:30:08.147Z,2.15
2023-05-11T12:32:57.871Z,4.03
2023-05-11T12:35:46.356Z,1.00
2023-05-11T12:43:53.056Z,0.50
2023-05-11T12:58:29.233Z,0.80
2023-05-11T13:06:47.596Z,1.02
2023-05-11T13:09:56.249Z,0.70
2023-05-11T13:53:46.006Z,3.22
2023-05-11T15:02:15.265Z,1.10
2023-05-11T15:04:38.173Z,0.50
2023-05-11T15:07:25.767Z,2.00
2023-05-11T15:10:48.968Z,1.33
2023-05-11T15:16:24.138Z,2.30
2023-05-11T15:19:12.071Z,3.47
2023-05-11T15:22:01.958Z,2.25
2023-05-11T15:24:49.292Z,0.60
2023-05-11T15:27:36.790Z,0.60
2023-05-11T15:30:26.634Z,5.47
2023-05-11T15:33:15.756Z,1.92
2023-05-11T15:36:06.632Z,1.50
2023-05-11T15:38:58.564Z,2.20
2023-05-11T15:41:50.781Z,1.60
2023-05-11T15:44:38.245Z,2.42
2023-05-11T15:49:19.796Z,1.30
2023-05-11T15:51:46.036Z,2.05
2023-05-11T15:57:47.533Z,1.13
2023-05-11T16:00:43.250Z,1.92
2023-05-11T16:03:31.088Z,2.17
2023-05-11T16:06:24.560Z,1.98
2023-05-11T16:09:58.686Z,1.33
2023-05-11T16:13:07.511Z,1.92
2023-05-11T16:20:03.593Z,0.80
2023-05-11T16:22:53.388Z,0.70
2023-05-11T16:25:53.145Z,0.77
2023-05-11T16:28:42.356Z,2.33
2023-05-11T16:31:29.775Z,0.70
2023-05-11T16:34:17.150Z,2.42
2023-05-11T16:37:04.601Z,1.13
2023-05-11T16:39:52.258Z,3.00
2023-05-11T16:42:39.657Z,1.50
2023-05-11T16:45:27.091Z,1.65
2023-05-11T16:48:14.521Z,0.70
2023-05-11T16:51:02.122Z,2.78
2023-05-11T16:53:51.818Z,5.22
2023-05-11T16:56:39.240Z,2.38
2023-05-11T16:59:29.192Z,1.88
2023-05-11T17:02:16.407Z,2.30
2023-05-11T17:05:08.972Z,3.35
2023-05-11T17:07:58.410Z,1.90
2023-05-11T17:10:46.339Z,3.05
2023-05-11T17:13:36.419Z,1.98
2023-05-11T17:16:26.504Z,1.23
2023-05-11T17:19:16.668Z,1.48
2023-05-11T17:22:10.293Z,5.07
2023-05-11T17:24:59.038Z,3.63
2023-05-11T17:27:49.630Z,1.40
2023-05-11T17:30:48.039Z,2.25
2023-05-11T17:33:36.239Z,1.67
2023-05-11T17:36:30.149Z,2.17
2023-05-11T17:39:19.216Z,1.40
2023-05-11T17:42:15.184Z,1.60
2023-05-11T17:45:02.866Z,1.70
2023-05-11T17:47:50.756Z,5.03
2023-05-11T17:50:40.764Z,3.90
2023-05-11T17:53:31.268Z,2.05
2023-05-11T17:56:19.444Z,3.72
2023-05-11T18:03:24.886Z,4.28
2023-05-11T18:06:12.362Z,2.17
2023-05-11T18:09:00.722Z,5.30
2023-05-11T18:11:51.035Z,5.60
2023-05-11T18:14:46.397Z,3.15
2023-05-11T18:17:36.342Z,2.53
2023-05-11T18:20:24.282Z,2.30
2023-05-11T18:23:14.363Z,2.97
2023-05-11T18:26:01.750Z,1.83
2023-05-11T18:28:49.846Z,2.47
2023-05-11T18:31:37.605Z,3.28
2023-05-11T18:34:24.878Z,3.25
2023-05-11T18:37:12.756Z,2.55
2023-05-11T18:40:02.166Z,5.47
2023-05-11T18:42:50.945Z,3.50
2023-05-11T18:45:41.025Z,2.78
2023-05-11T18:48:28.398Z,2.83
2023-05-11T18:51:19.545Z,2.85
2023-05-11T18:54:07.398Z,3.03
2023-05-11T18:57:01.355Z,3.55
2023-05-11T18:59:48.827Z,4.60
2023-05-11T19:02:36.933Z,3.35
2023-05-11T19:05:24.758Z,4.75
2023-05-11T19:08:12.663Z,4.20
2023-05-11T19:11:17.364Z,4.25
2023-05-11T19:14:04.993Z,6.13
2023-05-11T19:16:52.368Z,4.13
2023-05-11T19:19:39.745Z,6.95
2023-05-11T19:22:27.156Z,4.38
2023-05-11T19:25:14.646Z,3.40
2023-05-11T19:28:02.062Z,4.47
2023-05-11T19:30:54.384Z,3.50
2023-05-11T19:33:41.950Z,3.65
2023-05-11T19:36:30.089Z,4.38
2023-05-11T19:39:17.896Z,3.67
2023-05-11T19:42:07.256Z,3.40
2023-05-11T19:44:58.130Z,5.88
2023-05-11T19:47:46.440Z,4.35
2023-05-11T19:50:33.757Z,6.45
2023-05-11T19:53:21.028Z,4.03
2023-05-11T19:56:10.769Z,3.80
2023-05-11T19:59:00.484Z,4.15
2023-05-11T20:01:50.035Z,4.13
2023-05-11T20:04:38.060Z,7.20
2023-05-11T20:07:25.536Z,5.18
2023-05-11T20:10:13.266Z,4.18
2023-05-11T20:13:04.154Z,5.20
2023-05-11T20:15:52.027Z,7.07
2023-05-11T20:18:39.407Z,7.28
2023-05-11T20:21:29.776Z,6.03
2023-05-11T20:24:17.041Z,5.75
2023-05-11T20:27:09.518Z,6.32
2023-05-11T20:30:02.335Z,6.13
2023-05-11T20:35:39.947Z,8.30
2023-05-11T20:38:27.474Z,11.27
2023-05-11T20:41:14.895Z,8.95
2023-05-11T20:44:02.304Z,7.45
2023-05-11T20:46:49.530Z,8.65
2023-05-11T20:49:39.329Z,8.10
2023-05-11T20:52:26.977Z,10.43
2023-05-11T20:55:14.337Z,7.82
2023-05-11T20:58:05.182Z,7.40
2023-05-11T21:00:52.424Z,7.65
2023-05-11T21:03:40.585Z,11.40
2023-05-11T21:06:30.026Z,10.52
2023-05-11T21:09:20.045Z,11.00
2023-05-11T21:12:10.075Z,11.82
2023-05-11T21:14:57.745Z,12.80
2023-05-11T21:17:47.646Z,10.10
2023-05-11T21:20:35.235Z,10.82
2023-05-11T21:23:22.581Z,10.90
2023-05-11T21:26:18.609Z,10.63
2023-05-11T21:29:08.463Z,9.60
2023-05-11T21:31:55.924Z,11.23
2023-05-11T21:34:43.911Z,10.50
2023-05-11T21:37:34.130Z,9.88
2023-05-11T21:40:21.695Z,12.32
2023-05-11T21:43:11.933Z,9.85
2023-05-11T21:46:02.715Z,9.20
2023-05-11T21:48:49.916Z,9.43
2023-05-11T21:51:37.139Z,10.80
2023-05-11T21:54:24.813Z,9.05
2023-05-11T21:57:17.240Z,9.32
2023-05-11T22:00:05.271Z,11.60
2023-05-11T22:02:52.668Z,14.43
2023-05-11T22:05:40.348Z,9.23
2023-05-11T22:08:30.416Z,10.23
2023-05-11T22:11:19.461Z,11.30
2023-05-11T22:14:06.871Z,9.98
2023-05-11T22:16:54.071Z,8.73
2023-05-11T22:19:41.806Z,10.73
2023-05-11T22:22:28.951Z,13.27
2023-05-11T22:25:16.511Z,16.27
2023-05-11T22:28:03.812Z,10.50
2023-05-11T22:30:51.056Z,10.80
2023-05-11T22:33:38.319Z,13.45
2023-05-11T22:36:28.291Z,12.38
2023-05-11T22:39:15.624Z,13.50
2023-05-11T22:42:03.524Z,15.10
2023-05-11T22:44:53.072Z,13.25
2023-05-11T22:47:40.486Z,12.00
2023-05-11T22:50:28.262Z,12.27
2023-05-11T22:53:15.455Z,11.40
2023-05-11T22:56:06.432Z,13.48
2023-05-11T22:58:55.920Z,15.40
2023-05-11T23:01:45.577Z,19.00
2023-05-11T23:04:32.930Z,19.42
2023-05-11T23:07:20.443Z,15.57
2023-05-11T23:10:07.977Z,19.00
2023-05-11T23:12:55.914Z,17.05
2023-05-11T23:15:43.513Z,15.20
2023-05-11T23:18:31.652Z,19.70
2023-05-11T23:21:19.185Z,17.05
2023-05-11T23:24:07.509Z,17.02
2023-05-11T23:26:55.357Z,20.92
2023-05-11T23:29:42.555Z,23.60
2023-05-11T23:32:30.048Z,23.63
2023-05-11T23:35:17.425Z,24.23
2023-05-11T23:38:07.206Z,17.95
2023-05-11T23:40:54.970Z,15.65
2023-05-11T23:43:42.208Z,14.73
2023-05-11T23:46:32.721Z,14.43
2023-05-11T23:49:19.969Z,17.25
2023-05-11T23:52:07.500Z,16.80
2023-05-11T23:54:54.694Z,19.25
2023-05-11T23:57:41.892Z,24.48
